Airfield :







YOU CAN JOIN US ON...

 
LOGIN :

Register | Disclaimer

   EN    FR    IT 

 









Legend :    VFR   Marginal VFR   IFR   Intensive IFR   Very Intensive IFR
Visi :
Ceiling :
>= 8 km
>= 3000ft
5 to 8 km
1000 to 3000 ft
1500m to 5 km
500 to 1000 ft
800 to 1500m
200 to 500 ft
< 800m
< 200 ft
Symbols :   Thunderstorms  Fog  Heavy snow  Heavy precipitations  Wind > 20 kt






- Airport Elevation : 23 ft
- IATA code : STT


TIST - King

CURRENT METAR :
  • 180953Z 10004KT 10SM BKN080 27/24 A2993 RMK AO2 SLP136 T02720239 $

EXPIRED METARs :
  • 180853Z 12005KT 10SM FEW080 27/24 A2993 RMK AO2 RAE04 SLP135 P0000 60036 T02670244 57003 $
  • 180802Z 07006KT 3SM -RA BR SCT013 BKN045 OVC090 26/24 A2994 RMK AO2 P0000 T02610239 $
  • 180750Z 08015G24KT 1 3/4SM RA BR FEW009 BKN060 BKN095 27/24 A2995 RMK AO2 RAB49 P0023 $

TAF TIST
Valid from the 18 at 08:00 until the 19 at 06:00 UTC


180807Z 1808/1906 08008KT P6SM VCTS SCT025CB BKN050
TEMPO 1808/1809 3SM SHRA SCT013 BKN030
FM181000 09010KT P6SM VCSH SCT025 SCT035
FM181500 12013KT P6SM FEW025 SCT050
FM182200 07008KT P6SM VCSH SCT025 SCT040
TJZS FIR / North America



MET'MAP, your aeronautical weather chart ! - Copyright ORBIFLY December 2007 - Disclaimer

ORBIFLY MET'MAP TEAM :

Programming & Development : Alexandra Zaïnal
Original concept : Baudouin d'Aumeries
Technical & hardware support : Manuel Goepfert
Assistance : Marc-Olivier Méhu




SOURCES & CREDITS :

   NOAA